createdAt,value
2022-09-14T00:01:43.930Z,22.22
2022-09-14T00:04:13.881Z,22.23
2022-09-14T00:06:42.031Z,22.22
2022-09-14T00:09:14.426Z,22.23
2022-09-14T00:11:42.457Z,22.22
2022-09-14T00:14:13.476Z,22.22
2022-09-14T00:16:43.753Z,22.22
2022-09-14T00:19:18.280Z,22.21
2022-09-14T00:21:46.223Z,22.21
2022-09-14T00:24:14.075Z,22.21
2022-09-14T00:26:41.941Z,22.18
2022-09-14T00:29:12.852Z,22.21
2022-09-14T00:31:42.804Z,22.20
2022-09-14T00:34:14.683Z,22.20
2022-09-14T00:36:48.110Z,22.20
2022-09-14T00:39:17.995Z,22.20
2022-09-14T00:41:49.043Z,22.20
2022-09-14T00:44:54.936Z,22.20
2022-09-14T00:47:24.570Z,22.20
2022-09-14T00:49:54.994Z,22.20
2022-09-14T00:52:25.916Z,22.20
2022-09-14T00:54:56.475Z,22.20
2022-09-14T00:57:25.799Z,22.19
2022-09-14T00:59:57.008Z,22.20
2022-09-14T01:02:29.172Z,22.20
2022-09-14T01:04:57.250Z,22.19
2022-09-14T01:07:35.364Z,22.20
2022-09-14T01:10:15.094Z,22.19
2022-09-14T01:12:53.016Z,22.19
2022-09-14T01:15:26.360Z,22.18
2022-09-14T01:18:02.014Z,22.18
2022-09-14T01:20:35.941Z,22.17
2022-09-14T01:23:10.933Z,22.18
2022-09-14T01:25:59.236Z,22.16
2022-09-14T01:28:36.611Z,22.17
2022-09-14T01:31:14.474Z,22.16
2022-09-14T01:33:49.149Z,22.17
2022-09-14T01:36:18.837Z,22.17
2022-09-14T01:38:50.188Z,22.17
2022-09-14T01:41:21.864Z,22.16
2022-09-14T01:43:58.952Z,22.15
2022-09-14T01:46:31.917Z,22.15
2022-09-14T01:49:04.735Z,22.16
2022-09-14T01:51:39.094Z,22.15
2022-09-14T01:54:12.556Z,22.16
2022-09-14T01:56:46.903Z,22.15
2022-09-14T01:59:19.601Z,22.16
2022-09-14T02:01:52.748Z,22.16
2022-09-14T02:04:30.422Z,22.15
2022-09-14T02:06:58.482Z,22.14
2022-09-14T02:09:27.534Z,22.14
2022-09-14T02:12:00.676Z,22.15
2022-09-14T02:14:30.571Z,22.14
2022-09-14T02:16:58.861Z,22.13
2022-09-14T02:19:30.036Z,22.13
2022-09-14T02:21:59.149Z,22.15
2022-09-14T02:24:28.285Z,22.13
2022-09-14T02:26:58.921Z,22.14
2022-09-14T02:29:26.895Z,22.13
2022-09-14T02:32:13.112Z,22.12
2022-09-14T02:34:53.022Z,22.12
2022-09-14T02:37:26.570Z,22.13
2022-09-14T02:40:06.552Z,22.13
2022-09-14T02:42:42.736Z,22.13
2022-09-14T02:45:19.431Z,22.13
2022-09-14T02:47:55.868Z,22.15
2022-09-14T02:50:29.794Z,22.14
2022-09-14T02:53:02.970Z,22.12
2022-09-14T02:55:35.755Z,22.13
2022-09-14T02:58:05.928Z,22.12
2022-09-14T03:00:38.913Z,22.13
2022-09-14T03:03:10.093Z,22.12
2022-09-14T03:05:38.230Z,22.12
2022-09-14T03:08:06.564Z,22.11
2022-09-14T03:10:34.727Z,22.11
2022-09-14T03:13:02.981Z,22.11
2022-09-14T03:15:31.284Z,22.10
2022-09-14T03:17:59.312Z,22.11
2022-09-14T03:20:32.425Z,22.10
2022-09-14T03:23:04.993Z,22.11
2022-09-14T03:25:37.017Z,22.11
2022-09-14T03:28:04.919Z,22.10
2022-09-14T03:30:32.895Z,22.10
2022-09-14T03:33:01.308Z,22.10
2022-09-14T03:35:31.695Z,22.09
2022-09-14T03:38:03.178Z,22.09
2022-09-14T03:40:31.600Z,22.10
2022-09-14T03:43:02.283Z,22.09
2022-09-14T03:45:30.252Z,22.10
2022-09-14T03:47:58.067Z,22.08
2022-09-14T03:50:25.919Z,22.09
2022-09-14T03:52:56.151Z,22.09
2022-09-14T03:55:27.235Z,22.09
2022-09-14T03:57:56.014Z,22.09
2022-09-14T04:00:24.127Z,22.09
2022-09-14T04:02:54.919Z,22.09
2022-09-14T04:05:23.010Z,22.09
2022-09-14T04:07:50.790Z,22.08
2022-09-14T04:10:20.031Z,22.08
2022-09-14T04:12:53.249Z,22.08
2022-09-14T04:15:23.716Z,22.08
2022-09-14T04:17:52.031Z,22.08
2022-09-14T04:20:21.926Z,22.08
2022-09-14T04:22:49.839Z,22.07
2022-09-14T04:25:17.715Z,22.08
2022-09-14T04:27:59.055Z,22.07
2022-09-14T04:30:35.824Z,22.07
2022-09-14T04:33:09.526Z,22.07
2022-09-14T04:35:37.747Z,22.06
2022-09-14T04:38:05.816Z,22.07
2022-09-14T04:40:34.040Z,22.06
2022-09-14T04:43:05.574Z,22.06
2022-09-14T04:45:38.491Z,22.06
2022-09-14T04:48:07.736Z,22.06
2022-09-14T04:50:35.756Z,22.07
2022-09-14T04:53:04.008Z,22.07
2022-09-14T04:55:31.849Z,22.07
2022-09-14T04:57:59.705Z,22.07
2022-09-14T05:00:31.508Z,22.07
2022-09-14T05:02:59.508Z,22.07
2022-09-14T05:05:27.405Z,22.06
2022-09-14T05:07:55.397Z,22.06
2022-09-14T05:10:23.886Z,22.07
2022-09-14T05:12:51.751Z,22.06
2022-09-14T05:15:19.600Z,22.06
2022-09-14T05:17:48.958Z,22.06
2022-09-14T05:20:16.979Z,22.08
2022-09-14T05:22:44.797Z,22.07
2022-09-14T05:25:12.631Z,22.07
2022-09-14T05:27:43.110Z,22.07
2022-09-14T05:30:12.047Z,22.08
2022-09-14T05:32:39.905Z,22.09
2022-09-14T05:35:10.089Z,22.07
2022-09-14T05:37:38.028Z,22.10
2022-09-14T05:40:07.602Z,22.09
2022-09-14T05:42:35.556Z,22.08
2022-09-14T05:45:06.724Z,22.08
2022-09-14T05:47:38.884Z,22.08
2022-09-14T05:50:09.518Z,22.06
2022-09-14T05:52:40.176Z,22.07
2022-09-14T05:55:09.014Z,22.05
2022-09-14T05:57:36.823Z,22.05
2022-09-14T06:00:05.790Z,22.06
2022-09-14T06:02:33.586Z,22.04
2022-09-14T06:05:04.029Z,22.04
2022-09-14T06:07:33.225Z,22.04
2022-09-14T06:10:01.025Z,22.05
2022-09-14T06:12:31.657Z,22.05
2022-09-14T06:14:59.572Z,22.07
2022-09-14T06:17:29.889Z,22.10
2022-09-14T06:20:02.242Z,22.09
2022-09-14T06:22:33.491Z,22.08
2022-09-14T06:25:01.350Z,22.07
2022-09-14T06:27:29.230Z,22.07
2022-09-14T06:29:57.022Z,22.07
2022-09-14T06:32:24.848Z,22.07
2022-09-14T06:34:52.771Z,22.05
2022-09-14T06:37:20.662Z,22.07
2022-09-14T06:39:49.970Z,22.05
2022-09-14T06:42:17.915Z,22.05
2022-09-14T06:44:45.770Z,22.05
2022-09-14T06:47:13.624Z,22.03
2022-09-14T06:49:41.520Z,22.04
2022-09-14T06:52:09.378Z,22.06
2022-09-14T06:54:37.225Z,22.06
2022-09-14T06:57:07.312Z,22.06
2022-09-14T06:59:35.213Z,22.05
2022-09-14T07:02:03.051Z,22.05
2022-09-14T07:04:33.299Z,22.06
2022-09-14T07:07:01.207Z,22.05
2022-09-14T07:09:29.183Z,22.05
2022-09-14T07:11:57.053Z,22.06
2022-09-14T07:14:32.193Z,22.06
2022-09-14T07:17:00.283Z,22.06
2022-09-14T07:19:28.099Z,22.05
2022-09-14T07:21:55.991Z,22.04
2022-09-14T07:24:23.824Z,22.03
2022-09-14T07:26:51.847Z,22.05
2022-09-14T07:29:21.872Z,22.05
2022-09-14T07:31:53.830Z,22.06
2022-09-14T07:34:25.441Z,22.05
2022-09-14T07:36:53.315Z,22.05
2022-09-14T07:39:21.161Z,22.05
2022-09-14T07:41:51.559Z,22.03
2022-09-14T07:44:19.612Z,22.05
2022-09-14T07:46:48.283Z,22.04
2022-09-14T07:49:18.411Z,22.04
2022-09-14T07:51:46.702Z,22.05
2022-09-14T07:54:17.419Z,22.05
2022-09-14T07:56:45.770Z,22.05
2022-09-14T07:59:35.056Z,22.05
2022-09-14T08:02:04.515Z,22.05
2022-09-14T08:04:35.178Z,22.06
2022-09-14T08:07:03.550Z,22.06
2022-09-14T08:09:31.363Z,22.06
2022-09-14T08:11:59.384Z,22.06
2022-09-14T08:14:27.424Z,22.05
2022-09-14T08:16:59.252Z,22.05
2022-09-14T08:19:27.211Z,22.05
2022-09-14T08:21:56.417Z,22.06
2022-09-14T08:24:24.345Z,22.04
2022-09-14T08:26:52.277Z,21.98
2022-09-14T08:29:20.673Z,21.97
2022-09-14T08:31:51.638Z,21.98
2022-09-14T08:34:21.053Z,21.98
2022-09-14T08:36:49.256Z,21.99
2022-09-14T08:39:19.190Z,21.99
2022-09-14T08:41:52.794Z,22.00
2022-09-14T08:44:25.858Z,22.00
2022-09-14T08:47:00.174Z,22.01
2022-09-14T08:49:40.870Z,22.03
2022-09-14T08:52:23.252Z,22.04
2022-09-14T08:54:55.214Z,22.03
2022-09-14T08:57:29.688Z,22.01
2022-09-14T09:00:11.101Z,22.03
2022-09-14T09:03:11.991Z,22.03
2022-09-14T09:05:47.533Z,22.03
2022-09-14T09:08:24.770Z,22.01
2022-09-14T09:10:59.813Z,22.03
2022-09-14T09:13:32.150Z,22.03
2022-09-14T09:16:03.694Z,22.05
2022-09-14T09:18:40.389Z,22.03
2022-09-14T09:21:15.864Z,22.03
2022-09-14T09:23:44.181Z,22.05
2022-09-14T09:26:23.960Z,22.04
2022-09-14T09:28:55.754Z,22.03
2022-09-14T09:31:31.867Z,22.04
2022-09-14T09:34:00.060Z,22.05
2022-09-14T09:36:32.130Z,22.05
2022-09-14T09:39:04.458Z,22.06
2022-09-14T09:41:45.215Z,22.03
2022-09-14T09:44:16.606Z,22.05
2022-09-14T09:46:49.331Z,22.04
2022-09-14T09:49:21.987Z,22.05
2022-09-14T09:51:51.239Z,22.06
2022-09-14T09:54:27.632Z,22.07
2022-09-14T09:57:00.554Z,22.06
2022-09-14T09:59:32.400Z,22.06
2022-09-14T10:02:23.936Z,22.08
2022-09-14T10:05:00.987Z,22.08
2022-09-14T10:07:30.838Z,22.08
2022-09-14T10:10:04.100Z,22.09
2022-09-14T10:12:33.868Z,22.09
2022-09-14T10:15:15.100Z,22.09
2022-09-14T10:17:55.272Z,22.07
2022-09-14T10:20:25.395Z,22.07
2022-09-14T10:22:53.909Z,22.07
2022-09-14T10:25:23.996Z,22.06
2022-09-14T10:28:02.633Z,22.07
2022-09-14T10:30:38.591Z,22.06
2022-09-14T10:33:09.723Z,22.07
2022-09-14T10:35:47.555Z,22.06
2022-09-14T10:38:32.242Z,22.06
2022-09-14T10:41:14.461Z,22.07
2022-09-14T10:44:14.278Z,22.06
2022-09-14T10:46:47.096Z,22.06
2022-09-14T10:49:31.886Z,22.05
2022-09-14T10:52:09.514Z,22.05
2022-09-14T10:54:54.474Z,22.06
2022-09-14T10:57:31.551Z,22.06
2022-09-14T11:00:06.688Z,22.07
2022-09-14T11:02:53.599Z,22.07
2022-09-14T11:05:25.173Z,22.08
2022-09-14T11:08:03.280Z,22.10
2022-09-14T11:10:37.105Z,22.09
2022-09-14T11:13:35.126Z,22.08
2022-09-14T11:16:16.889Z,22.09
2022-09-14T11:18:54.857Z,22.09
2022-09-14T11:21:32.396Z,22.08
2022-09-14T11:24:08.603Z,22.09
2022-09-14T11:26:42.379Z,22.07
2022-09-14T11:29:24.474Z,22.08
2022-09-14T11:32:19.371Z,22.08
2022-09-14T11:34:54.741Z,22.08
2022-09-14T11:37:30.771Z,22.08
2022-09-14T11:40:06.824Z,22.09
2022-09-14T11:42:41.662Z,22.08
2022-09-14T11:45:18.346Z,22.08
2022-09-14T11:47:54.244Z,22.07
2022-09-14T11:50:25.303Z,22.07
2022-09-14T11:53:04.965Z,22.07
2022-09-14T11:55:33.343Z,22.06
2022-09-14T11:58:02.405Z,22.07
2022-09-14T12:01:02.607Z,22.06
2022-09-14T12:04:06.309Z,22.06
2022-09-14T12:06:47.575Z,22.07
2022-09-14T12:09:40.065Z,22.07
2022-09-14T12:12:28.286Z,22.07
2022-09-14T12:15:01.021Z,22.07
2022-09-14T12:17:40.325Z,22.05
2022-09-14T12:20:30.307Z,22.06
2022-09-14T12:23:17.235Z,22.06
2022-09-14T12:25:58.007Z,22.07
2022-09-14T12:28:41.094Z,22.05
2022-09-14T12:31:40.248Z,22.06
2022-09-14T12:34:20.608Z,22.06
2022-09-14T12:37:28.454Z,22.05
2022-09-14T12:40:32.714Z,22.06
2022-09-14T12:43:46.169Z,22.07
2022-09-14T12:46:32.800Z,22.06
2022-09-14T12:49:03.328Z,22.05
2022-09-14T12:51:47.993Z,22.06
2022-09-14T12:54:27.769Z,22.07
2022-09-14T12:57:09.241Z,22.06
2022-09-14T12:59:51.372Z,22.06
2022-09-14T13:02:47.563Z,22.06
2022-09-14T13:05:20.121Z,22.06
2022-09-14T13:07:48.169Z,22.07
2022-09-14T13:10:21.883Z,22.06
2022-09-14T13:12:50.516Z,22.07
2022-09-14T13:15:21.977Z,22.07
2022-09-14T13:18:03.189Z,22.07
2022-09-14T13:20:31.900Z,22.06
2022-09-14T13:22:59.868Z,22.07
2022-09-14T13:25:34.926Z,22.07
2022-09-14T13:28:05.628Z,22.08
2022-09-14T13:30:35.647Z,22.09
2022-09-14T13:33:05.132Z,22.09
2022-09-14T13:35:40.135Z,22.09
2022-09-14T13:38:10.710Z,22.07
2022-09-14T13:40:39.987Z,22.07
2022-09-14T13:43:08.078Z,22.08
2022-09-14T13:45:37.072Z,22.09
2022-09-14T13:48:06.703Z,22.08
2022-09-14T13:50:35.076Z,22.09
2022-09-14T13:53:04.281Z,22.09
2022-09-14T13:55:45.742Z,22.09
2022-09-14T13:58:16.752Z,22.09
2022-09-14T14:00:55.302Z,22.09
2022-09-14T14:03:32.845Z,22.10
2022-09-14T14:06:03.536Z,22.10
2022-09-14T14:08:37.516Z,22.10
2022-09-14T14:11:09.066Z,22.11
2022-09-14T14:13:38.635Z,22.09
2022-09-14T14:16:18.885Z,22.12
2022-09-14T14:18:57.271Z,22.11
2022-09-14T14:21:31.381Z,22.12
2022-09-14T14:24:20.437Z,22.12
2022-09-14T14:26:52.287Z,22.12
2022-09-14T14:29:23.933Z,22.12
2022-09-14T14:31:52.510Z,22.13
2022-09-14T14:34:25.624Z,22.11
2022-09-14T14:36:53.860Z,22.13
2022-09-14T14:39:23.244Z,22.12
2022-09-14T14:41:53.613Z,22.13
2022-09-14T14:44:24.801Z,22.12
2022-09-14T14:46:53.075Z,22.12
2022-09-14T14:49:21.706Z,22.12
2022-09-14T14:51:49.654Z,22.12
2022-09-14T14:54:18.819Z,22.12
2022-09-14T14:56:47.973Z,22.12
2022-09-14T14:59:29.469Z,22.13
2022-09-14T15:01:58.206Z,22.12
2022-09-14T15:04:29.143Z,22.12
2022-09-14T15:06:57.034Z,22.12
2022-09-14T15:09:27.375Z,22.12
2022-09-14T15:11:55.689Z,22.13
2022-09-14T15:14:27.610Z,22.12
2022-09-14T15:16:59.799Z,22.12
2022-09-14T15:19:28.388Z,22.12
2022-09-14T15:22:01.101Z,22.13
2022-09-14T15:24:29.727Z,22.12
2022-09-14T15:26:57.886Z,22.13
2022-09-14T15:29:27.113Z,22.14
2022-09-14T15:31:55.492Z,22.12
2022-09-14T15:34:23.433Z,22.13
2022-09-14T15:36:53.031Z,22.12
2022-09-14T15:39:22.566Z,22.13
2022-09-14T15:41:51.009Z,22.13
2022-09-14T15:44:19.587Z,22.13
2022-09-14T15:46:49.669Z,22.13
2022-09-14T15:49:19.470Z,22.14
2022-09-14T15:51:50.057Z,22.14
2022-09-14T15:54:18.629Z,22.13
2022-09-14T15:56:50.372Z,22.13
2022-09-14T15:59:19.375Z,22.12
2022-09-14T16:01:49.225Z,22.12
2022-09-14T16:04:17.560Z,22.12
2022-09-14T16:06:46.186Z,22.11
2022-09-14T16:09:17.906Z,22.15
2022-09-14T16:11:45.826Z,22.06
2022-09-14T16:14:13.820Z,21.90
2022-09-14T16:16:42.058Z,21.84
2022-09-14T16:19:13.801Z,21.82
2022-09-14T16:21:42.730Z,21.74
2022-09-14T16:24:15.456Z,21.71
2022-09-14T16:26:43.880Z,21.58
2022-09-14T16:29:13.316Z,21.57
2022-09-14T16:31:44.718Z,21.55
2022-09-14T16:34:15.955Z,21.47
2022-09-14T16:36:44.903Z,21.41
2022-09-14T16:39:14.766Z,21.36
2022-09-14T16:41:43.236Z,21.33
2022-09-14T16:44:16.553Z,21.33
2022-09-14T16:46:44.470Z,21.32
2022-09-14T16:49:13.735Z,21.29
2022-09-14T16:51:44.491Z,21.26
2022-09-14T16:54:16.461Z,21.23
2022-09-14T16:56:45.171Z,21.19
2022-09-14T16:59:17.542Z,21.16
2022-09-14T17:01:50.824Z,21.15
2022-09-14T17:04:25.127Z,21.13
2022-09-14T17:06:55.922Z,21.11
2022-09-14T17:09:26.265Z,21.08
2022-09-14T17:11:55.902Z,21.05
2022-09-14T17:14:26.208Z,21.02
2022-09-14T17:16:54.473Z,20.99
2022-09-14T17:19:23.797Z,21.00
2022-09-14T17:21:51.937Z,20.97
2022-09-14T17:24:21.546Z,20.96
2022-09-14T17:26:49.520Z,20.93
2022-09-14T17:29:17.613Z,20.91
2022-09-14T17:31:46.268Z,20.88
2022-09-14T17:34:16.879Z,20.86
2022-09-14T17:36:46.856Z,20.84
2022-09-14T17:39:15.465Z,20.81
2022-09-14T17:41:44.333Z,20.82
2022-09-14T17:44:14.252Z,20.79
2022-09-14T17:46:51.730Z,20.76
2022-09-14T17:49:21.363Z,20.74
2022-09-14T17:51:50.882Z,20.71
2022-09-14T17:54:19.485Z,20.68
2022-09-14T17:56:47.400Z,20.65
2022-09-14T17:59:17.703Z,20.63
2022-09-14T18:01:45.636Z,20.60
2022-09-14T18:04:15.228Z,20.57
2022-09-14T18:06:45.235Z,20.55
2022-09-14T18:09:17.775Z,20.51
2022-09-14T18:11:46.570Z,20.49
2022-09-14T18:14:15.294Z,20.46
2022-09-14T18:16:44.425Z,20.43
2022-09-14T18:19:13.193Z,20.41
2022-09-14T18:21:41.482Z,20.38
2022-09-14T18:24:11.593Z,20.36
2022-09-14T18:26:41.044Z,20.35
2022-09-14T18:29:08.961Z,20.33
2022-09-14T18:31:36.870Z,20.31
2022-09-14T18:34:04.777Z,20.29
2022-09-14T18:36:32.584Z,20.25
2022-09-14T18:39:00.507Z,20.25
2022-09-14T18:41:31.250Z,20.22
2022-09-14T18:44:01.223Z,20.19
2022-09-14T18:46:29.842Z,20.18
2022-09-14T18:48:59.746Z,20.13
2022-09-14T18:51:28.949Z,20.12
2022-09-14T18:53:58.115Z,20.08
2022-09-14T18:56:26.712Z,20.07
2022-09-14T18:58:54.632Z,20.05
2022-09-14T19:01:27.286Z,20.02
2022-09-14T19:03:57.118Z,20.02
2022-09-14T19:06:25.106Z,20.05
2022-09-14T19:08:55.590Z,20.10
2022-09-14T19:11:26.926Z,20.20
2022-09-14T19:13:58.977Z,20.29
2022-09-14T19:16:29.727Z,20.40
2022-09-14T19:19:06.856Z,20.48
2022-09-14T19:21:34.849Z,20.55
2022-09-14T19:24:04.444Z,20.62
2022-09-14T19:26:34.447Z,20.68
2022-09-14T19:29:03.815Z,20.73
2022-09-14T19:31:33.607Z,20.78
2022-09-14T19:34:02.991Z,20.82
2022-09-14T19:36:33.677Z,20.86
2022-09-14T19:39:02.904Z,20.91
2022-09-14T19:41:35.228Z,20.94
2022-09-14T19:44:04.345Z,20.98
2022-09-14T19:46:33.844Z,21.02
2022-09-14T19:49:01.723Z,21.05
2022-09-14T19:51:31.113Z,21.08
2022-09-14T19:54:00.436Z,21.11
2022-09-14T19:56:30.298Z,21.14
2022-09-14T19:58:59.881Z,21.16
2022-09-14T20:01:29.315Z,21.17
2022-09-14T20:03:59.108Z,21.22
2022-09-14T20:06:31.408Z,21.24
2022-09-14T20:09:01.236Z,21.26
2022-09-14T20:11:31.554Z,21.28
2022-09-14T20:14:01.414Z,21.30
2022-09-14T20:16:34.209Z,21.32
2022-09-14T20:19:09.118Z,21.34
2022-09-14T20:21:37.573Z,21.35
2022-09-14T20:24:16.669Z,21.38
2022-09-14T20:26:46.052Z,21.40
2022-09-14T20:29:15.188Z,21.40
2022-09-14T20:31:43.125Z,21.43
2022-09-14T20:34:13.175Z,21.44
2022-09-14T20:36:41.343Z,21.45
2022-09-14T20:39:09.682Z,21.44
2022-09-14T20:41:37.733Z,21.47
2022-09-14T20:44:06.516Z,21.48
2022-09-14T20:46:36.145Z,21.49
2022-09-14T20:49:05.875Z,21.51
2022-09-14T20:51:36.067Z,21.51
2022-09-14T20:54:04.948Z,21.53
2022-09-14T20:56:34.780Z,21.53
2022-09-14T20:59:05.440Z,21.55
2022-09-14T21:01:38.642Z,21.57
2022-09-14T21:04:09.217Z,21.58
2022-09-14T21:06:40.522Z,21.58
2022-09-14T21:09:10.044Z,21.60
2022-09-14T21:11:39.246Z,21.60
2022-09-14T21:14:07.565Z,21.61
2022-09-14T21:16:37.829Z,21.63
2022-09-14T21:19:08.858Z,21.64
2022-09-14T21:21:38.077Z,21.64
2022-09-14T21:24:08.864Z,21.63
2022-09-14T21:26:41.849Z,21.63
2022-09-14T21:29:14.902Z,21.62
2022-09-14T21:31:43.031Z,21.61
2022-09-14T21:34:12.066Z,21.61
2022-09-14T21:36:43.513Z,21.61
2022-09-14T21:39:13.119Z,21.61
2022-09-14T21:41:43.978Z,21.62
2022-09-14T21:44:12.398Z,21.60
2022-09-14T21:46:40.222Z,21.62
2022-09-14T21:49:12.586Z,21.63
2022-09-14T21:51:41.871Z,21.63
2022-09-14T21:54:12.384Z,21.63
2022-09-14T21:56:42.707Z,21.63
2022-09-14T21:59:12.879Z,21.63
2022-09-14T22:01:40.813Z,21.63
2022-09-14T22:04:14.649Z,21.62
2022-09-14T22:06:45.109Z,21.63
2022-09-14T22:09:13.960Z,21.64
2022-09-14T22:11:44.436Z,21.64
2022-09-14T22:14:14.953Z,21.64
2022-09-14T22:16:43.240Z,21.65
2022-09-14T22:19:15.232Z,21.66
2022-09-14T22:21:44.935Z,21.66
2022-09-14T22:24:15.114Z,21.67
2022-09-14T22:26:43.309Z,21.66
2022-09-14T22:29:12.915Z,21.66
2022-09-14T22:31:42.398Z,21.67
2022-09-14T22:34:10.722Z,21.67
2022-09-14T22:36:40.190Z,21.68
2022-09-14T22:39:10.746Z,21.68
2022-09-14T22:41:39.203Z,21.69
2022-09-14T22:44:08.395Z,21.68
2022-09-14T22:46:36.777Z,21.69
2022-09-14T22:49:04.892Z,21.69
2022-09-14T22:51:35.751Z,21.69
2022-09-14T22:54:07.388Z,21.69
2022-09-14T22:56:38.405Z,21.69
2022-09-14T22:59:07.307Z,21.70
2022-09-14T23:01:36.847Z,21.71
2022-09-14T23:04:06.631Z,21.70
2022-09-14T23:06:36.491Z,21.69
2022-09-14T23:09:05.592Z,21.69
2022-09-14T23:11:33.488Z,21.67
2022-09-14T23:14:02.922Z,21.68
2022-09-14T23:16:31.807Z,21.67
2022-09-14T23:19:02.546Z,21.66
2022-09-14T23:21:31.586Z,21.66
2022-09-14T23:24:00.974Z,21.65
2022-09-14T23:26:29.986Z,21.64
2022-09-14T23:28:59.398Z,21.64
2022-09-14T23:31:29.951Z,21.64
2022-09-14T23:33:59.412Z,21.63
2022-09-14T23:36:27.976Z,21.63
2022-09-14T23:38:55.789Z,21.62
2022-09-14T23:41:25.569Z,21.62
2022-09-14T23:43:53.928Z,21.62
2022-09-14T23:46:22.545Z,21.61
2022-09-14T23:48:52.561Z,21.61
2022-09-14T23:51:20.462Z,21.60
2022-09-14T23:53:48.335Z,21.60
2022-09-14T23:56:16.342Z,21.60
2022-09-14T23:58:44.624Z,21.60
